sensor_id;sensor_type;location;lat;lon;timestamp;P1;durP1;ratioP1;P2;durP2;ratioP2
53867;SDS011;41577;47.470;19.080;2023-02-26T00:00:12;2.97;;;2.35;;
53867;SDS011;41577;47.470;19.080;2023-02-26T00:00:25;2.70;;;2.20;;
53867;SDS011;41577;47.470;19.080;2023-02-26T00:00:38;3.10;;;2.28;;
53867;SDS011;41577;47.470;19.080;2023-02-26T00:00:50;3.58;;;2.42;;
53867;SDS011;41577;47.470;19.080;2023-02-26T00:01:11;3.42;;;2.38;;
53867;SDS011;41577;47.470;19.080;2023-02-26T00:01:25;3.28;;;2.40;;
53867;SDS011;41577;47.470;19.080;2023-02-26T00:01:40;2.88;;;2.38;;
53867;SDS011;41577;47.470;19.080;2023-02-26T00:01:54;2.63;;;2.30;;
53867;SDS011;41577;47.470;19.080;2023-02-26T00:02:06;2.72;;;2.42;;
53867;SDS011;41577;47.470;19.080;2023-02-26T00:02:20;2.75;;;2.53;;
53867;SDS011;41577;47.470;19.080;2023-02-26T00:02:33;2.60;;;2.40;;
53867;SDS011;41577;47.470;19.080;2023-02-26T00:02:46;3.60;;;2.17;;
53867;SDS011;41577;47.470;19.080;2023-02-26T00:02:59;4.18;;;2.10;;
53867;SDS011;41577;47.470;19.080;2023-02-26T00:03:11;3.80;;;2.08;;
53867;SDS011;41577;47.470;19.080;2023-02-26T00:03:24;2.65;;;2.10;;
53867;SDS011;41577;47.470;19.080;2023-02-26T00:03:37;3.00;;;2.30;;
53867;SDS011;41577;47.470;19.080;2023-02-26T00:03:49;2.88;;;2.33;;
53867;SDS011;41577;47.470;19.080;2023-02-26T00:04:02;2.45;;;2.13;;
53867;SDS011;41577;47.470;19.080;2023-02-26T00:04:16;2.70;;;2.20;;
53867;SDS011;41577;47.470;19.080;2023-02-26T00:04:29;5.15;;;2.53;;
53867;SDS011;41577;47.470;19.080;2023-02-26T00:04:41;5.10;;;2.60;;
53867;SDS011;41577;47.470;19.080;2023-02-26T00:04:53;2.80;;;2.10;;
53867;SDS011;41577;47.470;19.080;2023-02-26T00:05:06;4.10;;;2.10;;
53867;SDS011;41577;47.470;19.080;2023-02-26T00:05:22;4.30;;;2.38;;
53867;SDS011;41577;47.470;19.080;2023-02-26T00:05:35;2.50;;;2.28;;
53867;SDS011;41577;47.470;19.080;2023-02-26T00:05:57;4.38;;;2.42;;
53867;SDS011;41577;47.470;19.080;2023-02-26T00:06:11;4.57;;;2.63;;
53867;SDS011;41577;47.470;19.080;2023-02-26T00:06:24;2.63;;;2.22;;
53867;SDS011;41577;47.470;19.080;2023-02-26T00:06:39;2.56;;;2.18;;
53867;SDS011;41577;47.470;19.080;2023-02-26T00:06:52;3.00;;;2.28;;
53867;SDS011;41577;47.470;19.080;2023-02-26T00:07:10;3.78;;;2.53;;
53867;SDS011;41577;47.470;19.080;2023-02-26T00:07:22;3.28;;;2.50;;
53867;SDS011;41577;47.470;19.080;2023-02-26T00:07:34;2.88;;;2.45;;
53867;SDS011;41577;47.470;19.080;2023-02-26T00:07:46;3.08;;;2.30;;
53867;SDS011;41577;47.470;19.080;2023-02-26T00:07:59;3.15;;;2.20;;
53867;SDS011;41577;47.470;19.080;2023-02-26T00:08:11;2.20;;;1.98;;
53867;SDS011;41577;47.470;19.080;2023-02-26T00:08:24;2.30;;;2.10;;
53867;SDS011;41577;47.470;19.080;2023-02-26T00:08:37;2.42;;;2.22;;
53867;SDS011;41577;47.470;19.080;2023-02-26T00:08:54;2.78;;;2.30;;
53867;SDS011;41577;47.470;19.080;2023-02-26T00:09:07;3.58;;;2.47;;
53867;SDS011;41577;47.470;19.080;2023-02-26T00:09:20;6.15;;;2.65;;
53867;SDS011;41577;47.470;19.080;2023-02-26T00:09:33;5.97;;;2.47;;
53867;SDS011;41577;47.470;19.080;2023-02-26T00:09:45;5.30;;;2.33;;
53867;SDS011;41577;47.470;19.080;2023-02-26T00:09:58;2.45;;;2.20;;
53867;SDS011;41577;47.470;19.080;2023-02-26T00:10:12;2.40;;;2.20;;
53867;SDS011;41577;47.470;19.080;2023-02-26T00:10:25;2.30;;;2.10;;
53867;SDS011;41577;47.470;19.080;2023-02-26T00:10:38;2.60;;;2.22;;
53867;SDS011;41577;47.470;19.080;2023-02-26T00:10:50;2.72;;;2.28;;
53867;SDS011;41577;47.470;19.080;2023-02-26T00:11:05;3.47;;;2.40;;
53867;SDS011;41577;47.470;19.080;2023-02-26T00:11:18;3.92;;;2.42;;
53867;SDS011;41577;47.470;19.080;2023-02-26T00:11:32;4.72;;;2.53;;
53867;SDS011;41577;47.470;19.080;2023-02-26T00:11:45;4.47;;;2.50;;
53867;SDS011;41577;47.470;19.080;2023-02-26T00:11:59;3.95;;;2.50;;
53867;SDS011;41577;47.470;19.080;2023-02-26T00:12:12;6.85;;;2.50;;
53867;SDS011;41577;47.470;19.080;2023-02-26T00:12:25;7.22;;;2.55;;
53867;SDS011;41577;47.470;19.080;2023-02-26T00:12:38;3.75;;;2.53;;
53867;SDS011;41577;47.470;19.080;2023-02-26T00:12:52;2.78;;;2.40;;
53867;SDS011;41577;47.470;19.080;2023-02-26T00:13:05;4.10;;;2.40;;
53867;SDS011;41577;47.470;19.080;2023-02-26T00:13:19;4.43;;;2.47;;
53867;SDS011;41577;47.470;19.080;2023-02-26T00:13:32;4.10;;;2.50;;
53867;SDS011;41577;47.470;19.080;2023-02-26T00:13:46;4.00;;;2.38;;
53867;SDS011;41577;47.470;19.080;2023-02-26T00:14:01;2.97;;;2.30;;
53867;SDS011;41577;47.470;19.080;2023-02-26T00:14:16;2.30;;;2.10;;
53867;SDS011;41577;47.470;19.080;2023-02-26T00:14:30;2.33;;;2.13;;
53867;SDS011;41577;47.470;19.080;2023-02-26T00:14:42;3.15;;;2.50;;
53867;SDS011;41577;47.470;19.080;2023-02-26T00:14:56;3.25;;;2.63;;
53867;SDS011;41577;47.470;19.080;2023-02-26T00:15:10;3.85;;;2.90;;
53867;SDS011;41577;47.470;19.080;2023-02-26T00:15:24;3.28;;;2.70;;
53867;SDS011;41577;47.470;19.080;2023-02-26T00:15:38;2.90;;;2.58;;
53867;SDS011;41577;47.470;19.080;2023-02-26T00:15:50;2.85;;;2.55;;
53867;SDS011;41577;47.470;19.080;2023-02-26T00:16:11;2.55;;;2.30;;
53867;SDS011;41577;47.470;19.080;2023-02-26T00:16:31;5.10;;;2.20;;
53867;SDS011;41577;47.470;19.080;2023-02-26T00:16:48;4.15;;;2.25;;
53867;SDS011;41577;47.470;19.080;2023-02-26T00:17:13;2.97;;;2.60;;
53867;SDS011;41577;47.470;19.080;2023-02-26T00:17:44;4.13;;;2.35;;
53867;SDS011;41577;47.470;19.080;2023-02-26T00:18:03;2.53;;;2.20;;
53867;SDS011;41577;47.470;19.080;2023-02-26T00:18:18;2.97;;;2.35;;
53867;SDS011;41577;47.470;19.080;2023-02-26T00:18:32;3.58;;;2.35;;
53867;SDS011;41577;47.470;19.080;2023-02-26T00:18:46;3.30;;;2.35;;
53867;SDS011;41577;47.470;19.080;2023-02-26T00:18:59;3.20;;;2.60;;
53867;SDS011;41577;47.470;19.080;2023-02-26T00:19:12;3.30;;;2.63;;
53867;SDS011;41577;47.470;19.080;2023-02-26T00:19:26;2.70;;;2.38;;
53867;SDS011;41577;47.470;19.080;2023-02-26T00:19:41;2.95;;;2.50;;
53867;SDS011;41577;47.470;19.080;2023-02-26T00:19:53;3.35;;;2.60;;
53867;SDS011;41577;47.470;19.080;2023-02-26T00:20:07;3.83;;;2.67;;
53867;SDS011;41577;47.470;19.080;2023-02-26T00:20:21;3.75;;;2.60;;
53867;SDS011;41577;47.470;19.080;2023-02-26T00:20:37;3.42;;;2.78;;
53867;SDS011;41577;47.470;19.080;2023-02-26T00:20:54;3.60;;;2.60;;
53867;SDS011;41577;47.470;19.080;2023-02-26T00:21:08;3.97;;;2.33;;
53867;SDS011;41577;47.470;19.080;2023-02-26T00:21:27;4.05;;;2.40;;
53867;SDS011;41577;47.470;19.080;2023-02-26T00:21:40;3.55;;;2.35;;
53867;SDS011;41577;47.470;19.080;2023-02-26T00:21:54;3.33;;;2.50;;
53867;SDS011;41577;47.470;19.080;2023-02-26T00:22:07;3.58;;;2.60;;
53867;SDS011;41577;47.470;19.080;2023-02-26T00:22:22;3.90;;;2.90;;
53867;SDS011;41577;47.470;19.080;2023-02-26T00:22:35;3.28;;;2.80;;
53867;SDS011;41577;47.470;19.080;2023-02-26T00:22:48;8.57;;;2.38;;
53867;SDS011;41577;47.470;19.080;2023-02-26T00:23:01;8.90;;;2.47;;
53867;SDS011;41577;47.470;19.080;2023-02-26T00:23:15;2.85;;;2.45;;
53867;SDS011;41577;47.470;19.080;2023-02-26T00:23:29;2.40;;;2.30;;
53867;SDS011;41577;47.470;19.080;2023-02-26T00:23:42;2.47;;;2.28;;
53867;SDS011;41577;47.470;19.080;2023-02-26T00:23:55;2.67;;;2.47;;
53867;SDS011;41577;47.470;19.080;2023-02-26T00:24:10;2.60;;;2.40;;
53867;SDS011;41577;47.470;19.080;2023-02-26T00:24:23;2.35;;;2.15;;
53867;SDS011;41577;47.470;19.080;2023-02-26T00:24:35;2.45;;;2.25;;
53867;SDS011;41577;47.470;19.080;2023-02-26T00:24:48;2.78;;;2.38;;
53867;SDS011;41577;47.470;19.080;2023-02-26T00:25:02;2.72;;;2.45;;
53867;SDS011;41577;47.470;19.080;2023-02-26T00:25:15;2.78;;;2.50;;
53867;SDS011;41577;47.470;19.080;2023-02-26T00:25:28;2.67;;;2.47;;
53867;SDS011;41577;47.470;19.080;2023-02-26T00:25:40;2.85;;;2.60;;
53867;SDS011;41577;47.470;19.080;2023-02-26T00:25:53;6.07;;;2.80;;
53867;SDS011;41577;47.470;19.080;2023-02-26T00:26:07;7.97;;;2.80;;
53867;SDS011;41577;47.470;19.080;2023-02-26T00:26:21;4.97;;;2.55;;
53867;SDS011;41577;47.470;19.080;2023-02-26T00:26:37;3.42;;;2.50;;
53867;SDS011;41577;47.470;19.080;2023-02-26T00:26:50;2.65;;;2.42;;
53867;SDS011;41577;47.470;19.080;2023-02-26T00:27:03;2.63;;;2.40;;
53867;SDS011;41577;47.470;19.080;2023-02-26T00:27:16;3.05;;;2.75;;
53867;SDS011;41577;47.470;19.080;2023-02-26T00:27:30;3.15;;;2.78;;
53867;SDS011;41577;47.470;19.080;2023-02-26T00:27:43;3.05;;;2.72;;
53867;SDS011;41577;47.470;19.080;2023-02-26T00:27:57;3.10;;;2.75;;
53867;SDS011;41577;47.470;19.080;2023-02-26T00:28:10;3.20;;;2.65;;
53867;SDS011;41577;47.470;19.080;2023-02-26T00:28:24;3.00;;;2.60;;
53867;SDS011;41577;47.470;19.080;2023-02-26T00:28:37;4.00;;;2.60;;
53867;SDS011;41577;47.470;19.080;2023-02-26T00:28:52;3.67;;;2.38;;
53867;SDS011;41577;47.470;19.080;2023-02-26T00:29:05;4.00;;;2.53;;
53867;SDS011;41577;47.470;19.080;2023-02-26T00:29:22;4.13;;;2.60;;
53867;SDS011;41577;47.470;19.080;2023-02-26T00:29:36;3.50;;;2.42;;
53867;SDS011;41577;47.470;19.080;2023-02-26T00:29:49;4.60;;;2.65;;
53867;SDS011;41577;47.470;19.080;2023-02-26T00:30:05;4.82;;;2.72;;
53867;SDS011;41577;47.470;19.080;2023-02-26T00:30:18;3.28;;;2.42;;
53867;SDS011;41577;47.470;19.080;2023-02-26T00:30:33;3.65;;;2.47;;
53867;SDS011;41577;47.470;19.080;2023-02-26T00:30:47;4.13;;;2.70;;
53867;SDS011;41577;47.470;19.080;2023-02-26T00:30:59;3.45;;;2.70;;
53867;SDS011;41577;47.470;19.080;2023-02-26T00:31:13;3.00;;;2.70;;
53867;SDS011;41577;47.470;19.080;2023-02-26T00:31:27;3.08;;;2.78;;
53867;SDS011;41577;47.470;19.080;2023-02-26T00:31:41;3.78;;;2.75;;
53867;SDS011;41577;47.470;19.080;2023-02-26T00:31:57;3.50;;;2.53;;
53867;SDS011;41577;47.470;19.080;2023-02-26T00:32:11;3.55;;;2.65;;
53867;SDS011;41577;47.470;19.080;2023-02-26T00:32:25;3.72;;;2.63;;
53867;SDS011;41577;47.470;19.080;2023-02-26T00:32:39;3.72;;;2.58;;
53867;SDS011;41577;47.470;19.080;2023-02-26T00:32:52;3.85;;;2.65;;
53867;SDS011;41577;47.470;19.080;2023-02-26T00:33:05;3.53;;;2.58;;
53867;SDS011;41577;47.470;19.080;2023-02-26T00:33:18;3.10;;;2.63;;
53867;SDS011;41577;47.470;19.080;2023-02-26T00:33:32;2.75;;;2.50;;
53867;SDS011;41577;47.470;19.080;2023-02-26T00:33:44;2.83;;;2.25;;
53867;SDS011;41577;47.470;19.080;2023-02-26T00:33:58;3.03;;;2.42;;
53867;SDS011;41577;47.470;19.080;2023-02-26T00:34:10;3.40;;;2.40;;
53867;SDS011;41577;47.470;19.080;2023-02-26T00:34:25;3.25;;;2.38;;
53867;SDS011;41577;47.470;19.080;2023-02-26T00:34:38;2.53;;;2.33;;
53867;SDS011;41577;47.470;19.080;2023-02-26T00:34:52;2.60;;;2.40;;
53867;SDS011;41577;47.470;19.080;2023-02-26T00:35:05;2.83;;;2.35;;
53867;SDS011;41577;47.470;19.080;2023-02-26T00:35:19;3.05;;;2.30;;
53867;SDS011;41577;47.470;19.080;2023-02-26T00:35:33;2.97;;;2.50;;
53867;SDS011;41577;47.470;19.080;2023-02-26T00:35:46;2.67;;;2.47;;
53867;SDS011;41577;47.470;19.080;2023-02-26T00:35:59;2.60;;;2.40;;
53867;SDS011;41577;47.470;19.080;2023-02-26T00:36:28;2.75;;;2.38;;
53867;SDS011;41577;47.470;19.080;2023-02-26T00:36:58;2.92;;;2.55;;
53867;SDS011;41577;47.470;19.080;2023-02-26T00:37:26;3.53;;;2.60;;
53867;SDS011;41577;47.470;19.080;2023-02-26T00:37:54;3.08;;;2.40;;
53867;SDS011;41577;47.470;19.080;2023-02-26T00:38:10;3.95;;;2.40;;
53867;SDS011;41577;47.470;19.080;2023-02-26T00:38:27;5.05;;;2.50;;
53867;SDS011;41577;47.470;19.080;2023-02-26T00:38:46;3.33;;;2.50;;
53867;SDS011;41577;47.470;19.080;2023-02-26T00:39:11;2.80;;;2.58;;
53867;SDS011;41577;47.470;19.080;2023-02-26T00:39:34;2.75;;;2.55;;
53867;SDS011;41577;47.470;19.080;2023-02-26T00:39:55;3.22;;;2.70;;
53867;SDS011;41577;47.470;19.080;2023-02-26T00:40:14;3.63;;;2.47;;
53867;SDS011;41577;47.470;19.080;2023-02-26T00:40:35;3.75;;;2.60;;
53867;SDS011;41577;47.470;19.080;2023-02-26T00:40:52;4.55;;;2.60;;
53867;SDS011;41577;47.470;19.080;2023-02-26T00:41:05;2.95;;;2.38;;
53867;SDS011;41577;47.470;19.080;2023-02-26T00:41:18;4.10;;;2.30;;
53867;SDS011;41577;47.470;19.080;2023-02-26T00:41:32;6.32;;;2.50;;
53867;SDS011;41577;47.470;19.080;2023-02-26T00:41:46;4.13;;;2.50;;
53867;SDS011;41577;47.470;19.080;2023-02-26T00:42:00;2.63;;;2.42;;
53867;SDS011;41577;47.470;19.080;2023-02-26T00:42:13;2.72;;;2.50;;
53867;SDS011;41577;47.470;19.080;2023-02-26T00:42:26;2.90;;;2.38;;
53867;SDS011;41577;47.470;19.080;2023-02-26T00:42:47;3.80;;;2.55;;
53867;SDS011;41577;47.470;19.080;2023-02-26T00:43:00;3.25;;;2.72;;
53867;SDS011;41577;47.470;19.080;2023-02-26T00:43:21;2.90;;;2.70;;
53867;SDS011;41577;47.470;19.080;2023-02-26T00:43:40;4.53;;;2.60;;
53867;SDS011;41577;47.470;19.080;2023-02-26T00:43:58;5.38;;;2.65;;
53867;SDS011;41577;47.470;19.080;2023-02-26T00:44:12;2.90;;;2.50;;
53867;SDS011;41577;47.470;19.080;2023-02-26T00:44:33;2.75;;;2.50;;
53867;SDS011;41577;47.470;19.080;2023-02-26T00:44:49;2.47;;;2.28;;
53867;SDS011;41577;47.470;19.080;2023-02-26T00:45:03;2.65;;;2.42;;
53867;SDS011;41577;47.470;19.080;2023-02-26T00:45:19;2.97;;;2.67;;
53867;SDS011;41577;47.470;19.080;2023-02-26T00:45:34;3.72;;;2.60;;
53867;SDS011;41577;47.470;19.080;2023-02-26T00:45:55;4.22;;;2.53;;
53867;SDS011;41577;47.470;19.080;2023-02-26T00:46:25;3.55;;;2.58;;
53867;SDS011;41577;47.470;19.080;2023-02-26T00:46:47;5.20;;;2.55;;
53867;SDS011;41577;47.470;19.080;2023-02-26T00:47:14;3.46;;;2.50;;
53867;SDS011;41577;47.470;19.080;2023-02-26T00:47:37;2.38;;;2.17;;
53867;SDS011;41577;47.470;19.080;2023-02-26T00:48:00;2.30;;;2.10;;
53867;SDS011;41577;47.470;19.080;2023-02-26T00:48:33;3.05;;;2.63;;
53867;SDS011;41577;47.470;19.080;2023-02-26T00:48:58;3.95;;;2.75;;
53867;SDS011;41577;47.470;19.080;2023-02-26T00:49:18;3.42;;;2.55;;
53867;SDS011;41577;47.470;19.080;2023-02-26T00:49:48;3.25;;;2.50;;
53867;SDS011;41577;47.470;19.080;2023-02-26T00:50:12;2.47;;;2.25;;
53867;SDS011;41577;47.470;19.080;2023-02-26T00:50:27;2.92;;;2.30;;
53867;SDS011;41577;47.470;19.080;2023-02-26T00:50:44;2.88;;;2.40;;
53867;SDS011;41577;47.470;19.080;2023-02-26T00:51:09;2.90;;;2.70;;
53867;SDS011;41577;47.470;19.080;2023-02-26T00:51:31;3.90;;;2.50;;
53867;SDS011;41577;47.470;19.080;2023-02-26T00:51:52;3.42;;;2.67;;
53867;SDS011;41577;47.470;19.080;2023-02-26T00:52:10;3.53;;;2.90;;
53867;SDS011;41577;47.470;19.080;2023-02-26T00:52:26;3.67;;;2.90;;
53867;SDS011;41577;47.470;19.080;2023-02-26T00:52:52;2.88;;;2.45;;
53867;SDS011;41577;47.470;19.080;2023-02-26T00:53:15;2.40;;;2.20;;
53867;SDS011;41577;47.470;19.080;2023-02-26T00:53:38;2.50;;;2.30;;
53867;SDS011;41577;47.470;19.080;2023-02-26T00:53:58;2.75;;;2.50;;
53867;SDS011;41577;47.470;19.080;2023-02-26T00:54:19;3.55;;;2.70;;
53867;SDS011;41577;47.470;19.080;2023-02-26T00:54:35;4.30;;;3.00;;
53867;SDS011;41577;47.470;19.080;2023-02-26T00:54:48;3.85;;;2.75;;
53867;SDS011;41577;47.470;19.080;2023-02-26T00:55:03;2.58;;;2.38;;
53867;SDS011;41577;47.470;19.080;2023-02-26T00:55:18;2.63;;;2.42;;
53867;SDS011;41577;47.470;19.080;2023-02-26T00:55:42;2.63;;;2.40;;
53867;SDS011;41577;47.470;19.080;2023-02-26T00:55:54;2.78;;;2.58;;
53867;SDS011;41577;47.470;19.080;2023-02-26T00:56:12;3.67;;;2.40;;
53867;SDS011;41577;47.470;19.080;2023-02-26T00:56:25;3.60;;;2.20;;
53867;SDS011;41577;47.470;19.080;2023-02-26T00:56:50;2.38;;;2.17;;
53867;SDS011;41577;47.470;19.080;2023-02-26T00:57:03;2.50;;;2.30;;
53867;SDS011;41577;47.470;19.080;2023-02-26T00:57:17;2.78;;;2.35;;
53867;SDS011;41577;47.470;19.080;2023-02-26T00:57:34;2.55;;;2.28;;
53867;SDS011;41577;47.470;19.080;2023-02-26T00:57:47;2.45;;;2.25;;
53867;SDS011;41577;47.470;19.080;2023-02-26T00:58:03;2.50;;;2.30;;
53867;SDS011;41577;47.470;19.080;2023-02-26T00:58:17;2.65;;;2.17;;
53867;SDS011;41577;47.470;19.080;2023-02-26T00:58:31;2.50;;;2.30;;
53867;SDS011;41577;47.470;19.080;2023-02-26T00:58:46;2.60;;;2.40;;
53867;SDS011;41577;47.470;19.080;2023-02-26T00:58:59;2.55;;;2.35;;
53867;SDS011;41577;47.470;19.080;2023-02-26T00:59:16;2.50;;;2.30;;
53867;SDS011;41577;47.470;19.080;2023-02-26T00:59:30;3.92;;;2.38;;
53867;SDS011;41577;47.470;19.080;2023-02-26T00:59:45;4.10;;;2.50;;
53867;SDS011;41577;47.470;19.080;2023-02-26T00:59:59;2.70;;;2.47;;
53867;SDS011;41577;47.470;19.080;2023-02-26T01:00:12;2.50;;;2.30;;
53867;SDS011;41577;47.470;19.080;2023-02-26T01:00:26;2.55;;;2.35;;
53867;SDS011;41577;47.470;19.080;2023-02-26T01:00:40;3.00;;;2.55;;
53867;SDS011;41577;47.470;19.080;2023-02-26T01:00:55;3.38;;;2.53;;
53867;SDS011;41577;47.470;19.080;2023-02-26T01:01:07;3.35;;;2.58;;
53867;SDS011;41577;47.470;19.080;2023-02-26T01:01:22;2.70;;;2.50;;
53867;SDS011;41577;47.470;19.080;2023-02-26T01:01:35;2.50;;;2.30;;
53867;SDS011;41577;47.470;19.080;2023-02-26T01:01:51;2.35;;;2.15;;
53867;SDS011;41577;47.470;19.080;2023-02-26T01:02:05;3.53;;;2.47;;
53867;SDS011;41577;47.470;19.080;2023-02-26T01:02:22;5.28;;;2.50;;
53867;SDS011;41577;47.470;19.080;2023-02-26T01:02:36;4.07;;;2.30;;
53867;SDS011;41577;47.470;19.080;2023-02-26T01:02:50;2.67;;;2.47;;
53867;SDS011;41577;47.470;19.080;2023-02-26T01:03:08;2.95;;;2.65;;
53867;SDS011;41577;47.470;19.080;2023-02-26T01:03:22;2.95;;;2.55;;
53867;SDS011;41577;47.470;19.080;2023-02-26T01:03:37;3.08;;;2.65;;
53867;SDS011;41577;47.470;19.080;2023-02-26T01:03:53;3.17;;;2.75;;
53867;SDS011;41577;47.470;19.080;2023-02-26T01:04:11;3.10;;;2.72;;
53867;SDS011;41577;47.470;19.080;2023-02-26T01:04:25;4.05;;;2.85;;
53867;SDS011;41577;47.470;19.080;2023-02-26T01:04:43;3.65;;;2.80;;
53867;SDS011;41577;47.470;19.080;2023-02-26T01:04:57;3.53;;;2.60;;
53867;SDS011;41577;47.470;19.080;2023-02-26T01:05:10;3.28;;;2.60;;
53867;SDS011;41577;47.470;19.080;2023-02-26T01:05:32;3.20;;;2.75;;
53867;SDS011;41577;47.470;19.080;2023-02-26T01:05:48;3.42;;;2.70;;
53867;SDS011;41577;47.470;19.080;2023-02-26T01:06:08;3.28;;;2.53;;
53867;SDS011;41577;47.470;19.080;2023-02-26T01:06:34;2.65;;;2.45;;
53867;SDS011;41577;47.470;19.080;2023-02-26T01:06:57;2.70;;;2.50;;
53867;SDS011;41577;47.470;19.080;2023-02-26T01:07:14;4.50;;;2.60;;
53867;SDS011;41577;47.470;19.080;2023-02-26T01:07:36;3.55;;;2.67;;
53867;SDS011;41577;47.470;19.080;2023-02-26T01:07:57;4.07;;;2.53;;
53867;SDS011;41577;47.470;19.080;2023-02-26T01:08:17;2.85;;;2.65;;
53867;SDS011;41577;47.470;19.080;2023-02-26T01:08:39;2.92;;;2.65;;
53867;SDS011;41577;47.470;19.080;2023-02-26T01:08:58;3.30;;;2.85;;
53867;SDS011;41577;47.470;19.080;2023-02-26T01:09:20;3.05;;;2.78;;
53867;SDS011;41577;47.470;19.080;2023-02-26T01:09:36;2.70;;;2.38;;
53867;SDS011;41577;47.470;19.080;2023-02-26T01:09:50;2.85;;;2.42;;
53867;SDS011;41577;47.470;19.080;2023-02-26T01:10:05;3.22;;;2.65;;
53867;SDS011;41577;47.470;19.080;2023-02-26T01:10:20;2.65;;;2.40;;
53867;SDS011;41577;47.470;19.080;2023-02-26T01:10:33;2.85;;;2.50;;
53867;SDS011;41577;47.470;19.080;2023-02-26T01:10:47;3.63;;;2.67;;
53867;SDS011;41577;47.470;19.080;2023-02-26T01:11:01;3.50;;;2.50;;
53867;SDS011;41577;47.470;19.080;2023-02-26T01:11:17;5.18;;;2.58;;
53867;SDS011;41577;47.470;19.080;2023-02-26T01:11:33;6.63;;;2.60;;
53867;SDS011;41577;47.470;19.080;2023-02-26T01:11:47;4.90;;;2.50;;
53867;SDS011;41577;47.470;19.080;2023-02-26T01:12:02;3.33;;;2.45;;
53867;SDS011;41577;47.470;19.080;2023-02-26T01:12:18;2.83;;;2.40;;
53867;SDS011;41577;47.470;19.080;2023-02-26T01:12:32;3.20;;;2.63;;
53867;SDS011;41577;47.470;19.080;2023-02-26T01:12:45;3.38;;;2.70;;
53867;SDS011;41577;47.470;19.080;2023-02-26T01:13:02;2.63;;;2.42;;
53867;SDS011;41577;47.470;19.080;2023-02-26T01:13:16;3.90;;;2.20;;
53867;SDS011;41577;47.470;19.080;2023-02-26T01:13:30;4.57;;;2.20;;
53867;SDS011;41577;47.470;19.080;2023-02-26T01:13:43;2.85;;;2.25;;
53867;SDS011;41577;47.470;19.080;2023-02-26T01:14:01;2.55;;;2.35;;
53867;SDS011;41577;47.470;19.080;2023-02-26T01:14:16;2.78;;;2.53;;
53867;SDS011;41577;47.470;19.080;2023-02-26T01:14:32;3.90;;;2.70;;
53867;SDS011;41577;47.470;19.080;2023-02-26T01:14:46;4.32;;;2.58;;
53867;SDS011;41577;47.470;19.080;2023-02-26T01:15:00;3.30;;;2.42;;
53867;SDS011;41577;47.470;19.080;2023-02-26T01:15:13;2.60;;;2.40;;
53867;SDS011;41577;47.470;19.080;2023-02-26T01:15:26;3.35;;;2.45;;
53867;SDS011;41577;47.470;19.080;2023-02-26T01:15:39;3.72;;;2.50;;
53867;SDS011;41577;47.470;19.080;2023-02-26T01:16:00;2.55;;;2.35;;
53867;SDS011;41577;47.470;19.080;2023-02-26T01:16:19;2.60;;;2.40;;
53867;SDS011;41577;47.470;19.080;2023-02-26T01:16:37;2.63;;;2.42;;
53867;SDS011;41577;47.470;19.080;2023-02-26T01:16:56;2.80;;;2.60;;
53867;SDS011;41577;47.470;19.080;2023-02-26T01:17:15;3.10;;;2.80;;
53867;SDS011;41577;47.470;19.080;2023-02-26T01:17:34;3.90;;;2.65;;
53867;SDS011;41577;47.470;19.080;2023-02-26T01:17:55;4.00;;;2.33;;
53867;SDS011;41577;47.470;19.080;2023-02-26T01:18:14;2.15;;;2.05;;
53867;SDS011;41577;47.470;19.080;2023-02-26T01:18:32;2.70;;;2.47;;
53867;SDS011;41577;47.470;19.080;2023-02-26T01:18:53;2.90;;;2.47;;
53867;SDS011;41577;47.470;19.080;2023-02-26T01:19:13;2.55;;;2.35;;
53867;SDS011;41577;47.470;19.080;2023-02-26T01:19:37;3.17;;;2.35;;
53867;SDS011;41577;47.470;19.080;2023-02-26T01:19:57;2.75;;;2.28;;
53867;SDS011;41577;47.470;19.080;2023-02-26T01:20:20;3.08;;;2.53;;
53867;SDS011;41577;47.470;19.080;2023-02-26T01:20:36;2.95;;;2.50;;
53867;SDS011;41577;47.470;19.080;2023-02-26T01:20:53;2.30;;;2.00;;
53867;SDS011;41577;47.470;19.080;2023-02-26T01:21:16;3.72;;;2.15;;
53867;SDS011;41577;47.470;19.080;2023-02-26T01:21:35;2.67;;;2.47;;
53867;SDS011;41577;47.470;19.080;2023-02-26T01:21:54;2.53;;;2.33;;
53867;SDS011;41577;47.470;19.080;2023-02-26T01:22:18;2.75;;;2.38;;
53867;SDS011;41577;47.470;19.080;2023-02-26T01:22:39;2.47;;;2.20;;
53867;SDS011;41577;47.470;19.080;2023-02-26T01:22:58;3.00;;;2.40;;
53867;SDS011;41577;47.470;19.080;2023-02-26T01:23:15;3.42;;;2.40;;
53867;SDS011;41577;47.470;19.080;2023-02-26T01:23:33;2.80;;;2.30;;
53867;SDS011;41577;47.470;19.080;2023-02-26T01:23:50;2.40;;;2.15;;
53867;SDS011;41577;47.470;19.080;2023-02-26T01:24:04;2.50;;;2.30;;
53867;SDS011;41577;47.470;19.080;2023-02-26T01:24:20;2.50;;;2.28;;
53867;SDS011;41577;47.470;19.080;2023-02-26T01:24:44;3.05;;;2.05;;
53867;SDS011;41577;47.470;19.080;2023-02-26T01:25:00;4.55;;;2.20;;
53867;SDS011;41577;47.470;19.080;2023-02-26T01:25:15;3.90;;;2.08;;
53867;SDS011;41577;47.470;19.080;2023-02-26T01:25:34;2.80;;;2.50;;
53867;SDS011;41577;47.470;19.080;2023-02-26T01:25:52;4.07;;;2.60;;
53867;SDS011;41577;47.470;19.080;2023-02-26T01:26:14;3.17;;;2.35;;
53867;SDS011;41577;47.470;19.080;2023-02-26T01:26:32;2.60;;;2.40;;
53867;SDS011;41577;47.470;19.080;2023-02-26T01:26:45;2.58;;;2.38;;
53867;SDS011;41577;47.470;19.080;2023-02-26T01:26:58;2.25;;;2.05;;
53867;SDS011;41577;47.470;19.080;2023-02-26T01:27:11;2.30;;;2.10;;
53867;SDS011;41577;47.470;19.080;2023-02-26T01:27:27;2.20;;;2.03;;
53867;SDS011;41577;47.470;19.080;2023-02-26T01:27:41;2.45;;;2.25;;
53867;SDS011;41577;47.470;19.080;2023-02-26T01:27:53;2.45;;;2.25;;
53867;SDS011;41577;47.470;19.080;2023-02-26T01:28:09;3.60;;;2.08;;
53867;SDS011;41577;47.470;19.080;2023-02-26T01:28:22;4.00;;;2.20;;
53867;SDS011;41577;47.470;19.080;2023-02-26T01:28:36;2.65;;;2.15;;
53867;SDS011;41577;47.470;19.080;2023-02-26T01:28:50;3.30;;;2.20;;
53867;SDS011;41577;47.470;19.080;2023-02-26T01:29:05;3.38;;;2.22;;
53867;SDS011;41577;47.470;19.080;2023-02-26T01:29:21;2.63;;;2.13;;
53867;SDS011;41577;47.470;19.080;2023-02-26T01:29:35;2.53;;;2.10;;
53867;SDS011;41577;47.470;19.080;2023-02-26T01:29:48;2.83;;;2.38;;
53867;SDS011;41577;47.470;19.080;2023-02-26T01:30:01;2.60;;;2.40;;
53867;SDS011;41577;47.470;19.080;2023-02-26T01:30:15;2.80;;;2.30;;
53867;SDS011;41577;47.470;19.080;2023-02-26T01:30:29;2.90;;;2.20;;
53867;SDS011;41577;47.470;19.080;2023-02-26T01:30:44;2.42;;;2.22;;
53867;SDS011;41577;47.470;19.080;2023-02-26T01:30:57;2.67;;;2.30;;
53867;SDS011;41577;47.470;19.080;2023-02-26T01:31:21;3.40;;;2.30;;
53867;SDS011;41577;47.470;19.080;2023-02-26T01:31:47;2.85;;;2.53;;
53867;SDS011;41577;47.470;19.080;2023-02-26T01:32:05;2.83;;;2.33;;
53867;SDS011;41577;47.470;19.080;2023-02-26T01:32:29;2.67;;;2.33;;
53867;SDS011;41577;47.470;19.080;2023-02-26T01:32:57;4.10;;;2.36;;
53867;SDS011;41577;47.470;19.080;2023-02-26T01:33:16;3.60;;;2.30;;
53867;SDS011;41577;47.470;19.080;2023-02-26T01:33:37;2.47;;;2.28;;
53867;SDS011;41577;47.470;19.080;2023-02-26T01:33:55;2.67;;;2.35;;
53867;SDS011;41577;47.470;19.080;2023-02-26T01:34:13;3.25;;;2.70;;
53867;SDS011;41577;47.470;19.080;2023-02-26T01:34:31;3.40;;;2.60;;
53867;SDS011;41577;47.470;19.080;2023-02-26T01:34:50;2.67;;;2.35;;
53867;SDS011;41577;47.470;19.080;2023-02-26T01:35:14;4.32;;;2.40;;
53867;SDS011;41577;47.470;19.080;2023-02-26T01:35:37;2.60;;;2.40;;
53867;SDS011;41577;47.470;19.080;2023-02-26T01:35:54;2.60;;;2.40;;